createdAt,value
2018-11-21T00:00:20.069Z,101041.77
2018-11-21T00:02:49.945Z,101034.29
2018-11-21T00:05:18.954Z,101037.66
2018-11-21T00:07:49.176Z,101029.69
2018-11-21T00:10:18.215Z,101032.09
2018-11-21T00:12:49.645Z,101026.93
2018-11-21T00:15:18.690Z,101035.52
2018-11-21T00:17:47.794Z,101021.79
2018-11-21T00:20:16.832Z,101029.78
2018-11-21T00:22:45.935Z,101035.66
2018-11-21T00:25:14.891Z,101034.41
2018-11-21T00:27:43.930Z,101027.14
2018-11-21T00:30:17.189Z,101030.20
2018-11-21T00:32:46.231Z,101030.59
2018-11-21T00:35:15.252Z,101027.20
2018-11-21T00:37:44.297Z,101041.81
2018-11-21T00:40:14.625Z,101039.91
2018-11-21T00:42:46.857Z,101041.64
2018-11-21T00:45:12.704Z,101043.11
2018-11-21T00:47:41.741Z,101054.34
2018-11-21T00:50:11.261Z,101057.28
2018-11-21T00:52:39.904Z,101058.96
2018-11-21T00:55:09.024Z,101055.17
2018-11-21T00:57:40.502Z,101061.58
2018-11-21T01:00:10.680Z,101065.36
2018-11-21T01:02:39.717Z,101066.39
2018-11-21T01:05:08.757Z,101078.66
2018-11-21T01:07:37.839Z,101078.34
2018-11-21T01:10:06.898Z,101079.46
2018-11-21T01:12:35.939Z,101076.61
2018-11-21T01:15:05.085Z,101074.52
2018-11-21T01:17:34.147Z,101078.90
2018-11-21T01:20:03.205Z,101076.47
2018-11-21T01:22:32.461Z,101086.89
2018-11-21T01:25:01.447Z,101082.95
2018-11-21T01:27:30.514Z,101085.72
2018-11-21T01:29:59.582Z,101093.14
2018-11-21T01:32:28.603Z,101093.52
2018-11-21T01:34:57.665Z,101101.80
2018-11-21T01:37:26.778Z,101101.42
2018-11-21T01:39:55.841Z,101105.20
2018-11-21T01:42:24.865Z,101109.84
2018-11-21T01:44:53.932Z,101116.80
2018-11-21T01:47:22.981Z,101122.53
2018-11-21T01:49:52.002Z,101126.56
2018-11-21T01:52:21.309Z,101119.92
2018-11-21T01:54:50.373Z,101125.86
2018-11-21T01:57:20.911Z,101134.73
2018-11-21T01:59:50.082Z,101140.02
2018-11-21T02:02:19.174Z,101146.41
2018-11-21T02:04:48.227Z,101147.11
2018-11-21T02:07:17.256Z,101149.64
2018-11-21T02:09:46.272Z,101154.36
2018-11-21T02:12:15.367Z,101158.23
2018-11-21T02:14:44.437Z,101155.77
2018-11-21T02:17:13.568Z,101155.43
2018-11-21T02:19:42.510Z,101152.63
2018-11-21T02:22:11.668Z,101162.96
2018-11-21T02:24:41.803Z,101163.88
2018-11-21T02:27:10.875Z,101162.67
2018-11-21T02:29:39.920Z,101167.94
2018-11-21T02:32:09.002Z,101168.56
2018-11-21T02:34:38.068Z,101173.47
2018-11-21T02:37:07.129Z,101169.63
2018-11-21T02:39:36.154Z,101170.98
2018-11-21T02:42:05.186Z,101177.16
2018-11-21T02:44:34.374Z,101186.98
2018-11-21T02:47:03.365Z,101176.27
2018-11-21T02:49:32.396Z,101184.83
2018-11-21T02:52:01.437Z,101184.31
2018-11-21T02:54:30.574Z,101194.83
2018-11-21T02:57:22.587Z,101196.84
2018-11-21T02:59:53.739Z,101196.84
2018-11-21T03:02:22.791Z,101207.55
2018-11-21T03:04:51.843Z,101213.72
2018-11-21T03:07:21.228Z,101215.07
2018-11-21T03:09:50.293Z,101215.30
2018-11-21T03:12:19.385Z,101216.23
2018-11-21T03:14:48.486Z,101219.56
2018-11-21T03:17:17.531Z,101230.88
2018-11-21T03:19:47.650Z,101226.95
2018-11-21T03:22:16.744Z,101237.69
2018-11-21T03:24:45.828Z,101242.97
2018-11-21T03:27:14.885Z,101242.47
2018-11-21T03:29:43.920Z,101239.04
2018-11-21T03:32:12.943Z,101250.31
2018-11-21T03:34:42.019Z,101252.70
2018-11-21T03:37:11.089Z,101242.73
2018-11-21T03:39:42.407Z,101249.38
2018-11-21T03:42:11.333Z,101254.39
2018-11-21T03:44:40.390Z,101258.09
2018-11-21T03:47:09.454Z,101250.84
2018-11-21T03:49:38.474Z,101262.58
2018-11-21T03:52:07.502Z,101255.47
2018-11-21T03:54:36.554Z,101261.49
2018-11-21T03:57:05.661Z,101272.06
2018-11-21T03:59:34.777Z,101283.09
2018-11-21T04:02:03.898Z,101274.96
2018-11-21T04:04:32.867Z,101268.78
2018-11-21T04:07:01.942Z,101284.02
2018-11-21T04:09:32.046Z,101289.31
2018-11-21T04:12:01.106Z,101272.59
2018-11-21T04:14:30.188Z,101282.78
2018-11-21T04:16:59.205Z,101292.03
2018-11-21T04:19:29.369Z,101299.44
2018-11-21T04:21:58.517Z,101297.38
2018-11-21T04:24:27.493Z,101301.52
2018-11-21T04:26:56.517Z,101311.91
2018-11-21T04:29:25.572Z,101315.30
2018-11-21T04:31:54.615Z,101326.13
2018-11-21T04:34:23.630Z,101332.05
2018-11-21T04:36:52.637Z,101334.11
2018-11-21T04:39:21.710Z,101339.30
2018-11-21T04:41:50.768Z,101345.65
2018-11-21T04:44:19.794Z,101355.70
2018-11-21T04:46:48.818Z,101361.63
2018-11-21T04:49:17.886Z,101345.48
2018-11-21T04:51:46.967Z,101345.65
2018-11-21T04:54:16.014Z,101347.11
2018-11-21T04:56:45.057Z,101352.76
2018-11-21T04:59:14.460Z,101357.59
2018-11-21T05:01:43.522Z,101361.00
2018-11-21T05:04:12.605Z,101364.45
2018-11-21T05:06:41.673Z,101368.41
2018-11-21T05:09:11.764Z,101366.69
2018-11-21T05:11:40.827Z,101376.70
2018-11-21T05:14:09.910Z,101377.80
2018-11-21T05:16:38.943Z,101370.25
2018-11-21T05:19:08.037Z,101364.55
2018-11-21T05:21:37.098Z,101365.22
2018-11-21T05:24:06.117Z,101367.41
2018-11-21T05:26:35.148Z,101368.95
2018-11-21T05:29:04.210Z,101377.64
2018-11-21T05:31:33.280Z,101383.63
2018-11-21T05:34:02.303Z,101386.70
2018-11-21T05:36:31.397Z,101389.76
2018-11-21T05:39:00.389Z,101395.19
2018-11-21T05:41:29.451Z,101397.22
2018-11-21T05:43:58.466Z,101391.09
2018-11-21T05:46:27.766Z,101408.88
2018-11-21T05:48:56.780Z,101414.69
2018-11-21T05:51:25.885Z,101417.25
2018-11-21T05:53:54.937Z,101414.30
2018-11-21T05:56:24.001Z,101425.82
2018-11-21T05:58:52.985Z,101432.52
2018-11-21T06:01:22.079Z,101423.64
2018-11-21T06:03:51.149Z,101426.51
2018-11-21T06:06:20.509Z,101430.56
2018-11-21T06:08:49.648Z,101424.29
2018-11-21T06:11:18.714Z,101437.72
2018-11-21T06:13:47.780Z,101448.84
2018-11-21T06:16:16.811Z,101439.81
2018-11-21T06:18:45.916Z,101440.28
2018-11-21T06:21:14.977Z,101446.13
2018-11-21T06:23:44.079Z,101450.27
2018-11-21T06:26:13.136Z,101441.89
2018-11-21T06:28:42.263Z,101444.45
2018-11-21T06:31:11.251Z,101453.32
2018-11-21T06:33:40.303Z,101451.18
2018-11-21T06:36:09.475Z,101451.98
2018-11-21T06:38:38.505Z,101453.13
2018-11-21T06:41:07.550Z,101452.83
2018-11-21T06:43:36.626Z,101451.79
2018-11-21T06:46:05.816Z,101456.00
2018-11-21T06:48:34.907Z,101459.58
2018-11-21T06:51:03.953Z,101478.97
2018-11-21T06:53:32.979Z,101482.61
2018-11-21T06:56:02.011Z,101489.84
2018-11-21T06:58:31.076Z,101488.81
2018-11-21T07:01:00.155Z,101486.61
2018-11-21T07:03:29.587Z,101496.11
2018-11-21T07:05:58.655Z,101499.02
2018-11-21T07:08:27.738Z,101499.16
2018-11-21T07:10:56.801Z,101499.61
2018-11-21T07:13:25.861Z,101501.26
2018-11-21T07:15:54.919Z,101510.26
2018-11-21T07:18:24.033Z,101499.64
2018-11-21T07:20:53.119Z,101502.46
2018-11-21T07:23:22.224Z,101508.22
2018-11-21T07:25:51.250Z,101505.70
2018-11-21T07:28:20.304Z,101501.95
2018-11-21T07:30:49.340Z,101500.55
2018-11-21T07:33:18.667Z,101507.18
2018-11-21T07:35:47.713Z,101515.14
2018-11-21T07:38:16.742Z,101518.95
2018-11-21T07:40:45.817Z,101524.49
2018-11-21T07:43:14.899Z,101529.57
2018-11-21T07:45:43.939Z,101530.67
2018-11-21T07:48:12.998Z,101545.33
2018-11-21T07:50:43.403Z,101550.05
2018-11-21T07:53:12.557Z,101557.20
2018-11-21T07:55:41.513Z,101555.87
2018-11-21T07:58:12.816Z,101571.83
2018-11-21T08:00:54.483Z,101576.45
2018-11-21T08:03:24.601Z,101574.68
2018-11-21T08:06:12.790Z,101567.14
2018-11-21T08:09:00.044Z,101578.95
2018-11-21T08:11:51.243Z,101571.18
2018-11-21T08:14:34.587Z,101573.77
2018-11-21T08:17:22.100Z,101571.77
2018-11-21T08:20:28.663Z,101579.63
2018-11-21T08:23:03.963Z,101589.20
2018-11-21T08:25:54.776Z,101586.58
2018-11-21T08:28:32.773Z,101590.30
2018-11-21T08:31:01.846Z,101592.02
2018-11-21T08:33:34.034Z,101605.13
2018-11-21T08:36:01.084Z,101612.03
2018-11-21T08:38:30.085Z,101615.75
2018-11-21T08:40:59.110Z,101619.02
2018-11-21T08:43:28.192Z,101628.57
2018-11-21T08:45:57.261Z,101625.59
2018-11-21T08:48:26.428Z,101625.52
2018-11-21T08:50:55.777Z,101634.36
2018-11-21T08:53:24.956Z,101633.06
2018-11-21T08:55:53.924Z,101644.79
2018-11-21T08:58:22.922Z,101645.31
2018-11-21T09:00:52.018Z,101642.75
2018-11-21T09:03:21.145Z,101642.62
2018-11-21T09:05:50.167Z,101637.63
2018-11-21T09:08:19.235Z,101637.63
2018-11-21T09:10:57.533Z,101645.45
2018-11-21T09:13:26.630Z,101653.49
2018-11-21T09:15:55.685Z,101648.16
2018-11-21T09:18:25.797Z,101649.64
2018-11-21T09:20:54.953Z,101654.72
2018-11-21T09:23:23.949Z,101652.97
2018-11-21T09:25:53.024Z,101665.01
2018-11-21T09:28:22.082Z,101667.92
2018-11-21T09:30:51.131Z,101670.87
2018-11-21T09:33:20.188Z,101663.11
2018-11-21T09:35:49.671Z,101669.62
2018-11-21T09:38:18.759Z,101677.17
2018-11-21T09:40:47.791Z,101666.86
2018-11-21T09:43:16.842Z,101680.50
2018-11-21T09:45:48.338Z,101685.23
2018-11-21T09:48:19.492Z,101690.80
2018-11-21T09:50:48.558Z,101691.80
2018-11-21T09:53:18.625Z,101691.31
2018-11-21T09:55:48.306Z,101688.73
2018-11-21T09:58:16.787Z,101697.75
2018-11-21T10:01:22.263Z,101710.91
2018-11-21T10:03:51.345Z,101714.04
2018-11-21T10:06:28.232Z,101718.71
2018-11-21T10:09:07.948Z,101717.78
2018-11-21T10:11:37.753Z,101725.16
2018-11-21T10:14:07.383Z,101736.31
2018-11-21T10:16:36.454Z,101733.06
2018-11-21T10:19:05.903Z,101723.98
2018-11-21T10:21:35.978Z,101724.78
2018-11-21T10:24:05.081Z,101717.00
2018-11-21T10:26:34.147Z,101723.13
2018-11-21T10:29:03.285Z,101721.70
2018-11-21T10:31:32.255Z,101728.20
2018-11-21T10:34:01.396Z,101725.73
2018-11-21T10:36:30.365Z,101729.58
2018-11-21T10:38:59.528Z,101732.20
2018-11-21T10:41:28.522Z,101725.34
2018-11-21T10:43:57.566Z,101728.77
2018-11-21T10:46:26.621Z,101726.08
2018-11-21T10:48:55.687Z,101727.72
2018-11-21T10:51:24.739Z,101721.50
2018-11-21T10:53:53.766Z,101725.35
2018-11-21T10:56:22.797Z,101719.33
2018-11-21T10:58:51.989Z,101721.00
2018-11-21T11:01:27.448Z,101723.43
2018-11-21T11:03:59.234Z,101725.66
2018-11-21T11:06:46.062Z,101729.17
2018-11-21T11:09:33.862Z,101723.05
2018-11-21T11:12:34.296Z,101717.72
2018-11-21T11:15:37.405Z,101717.14
2018-11-21T11:18:24.319Z,101718.24
2018-11-21T11:21:11.745Z,101716.19
2018-11-21T11:23:58.854Z,101723.11
2018-11-21T11:26:46.986Z,101725.60
2018-11-21T11:29:33.601Z,101734.80
2018-11-21T11:32:09.327Z,101738.80
2018-11-21T11:35:03.404Z,101741.16
2018-11-21T11:37:50.460Z,101738.17
2018-11-21T11:40:37.534Z,101737.11
2018-11-21T11:43:37.900Z,101723.41
2018-11-21T11:46:25.004Z,101713.61
2018-11-21T11:49:18.901Z,101710.47
2018-11-21T11:51:56.799Z,101713.11
2018-11-21T11:54:53.858Z,101708.11
2018-11-21T11:57:44.701Z,101706.70
2018-11-21T12:00:35.748Z,101718.06
2018-11-21T12:03:33.120Z,101724.36
2018-11-21T12:06:24.174Z,101715.84
2018-11-21T12:09:10.940Z,101730.34
2018-11-21T12:11:57.941Z,101732.41
2018-11-21T12:14:34.640Z,101726.95
2018-11-21T12:17:27.934Z,101726.11
2018-11-21T12:20:14.775Z,101728.59
2018-11-21T12:23:15.816Z,101727.31
2018-11-21T12:26:10.334Z,101721.27
2018-11-21T12:28:54.430Z,101728.66
2018-11-21T12:31:29.643Z,101733.61
2018-11-21T12:34:17.847Z,101719.33
2018-11-21T12:37:10.977Z,101716.92
2018-11-21T12:40:01.881Z,101725.13
2018-11-21T12:42:53.197Z,101725.86
2018-11-21T12:45:44.314Z,101716.77
2018-11-21T12:48:35.222Z,101721.36
2018-11-21T12:51:33.298Z,101728.09
2018-11-21T12:54:29.416Z,101722.55
2018-11-21T12:57:11.914Z,101727.45
2018-11-21T13:00:02.096Z,101731.70
2018-11-21T13:02:40.058Z,101730.70
2018-11-21T13:05:36.345Z,101730.61
2018-11-21T13:08:23.305Z,101733.24
2018-11-21T13:11:19.440Z,101729.94
2018-11-21T13:14:22.567Z,101733.55
